sensor_id;sensor_type;location;lat;lon;timestamp;temperature;humidity
66594;DHT22;53450;42.584;23.366;2023-08-12T00:01:23;14.95;75.31
66594;DHT22;53450;42.584;23.366;2023-08-12T00:03:50;14.88;75.32
66594;DHT22;53450;42.584;23.366;2023-08-12T00:06:16;14.83;75.43
66594;DHT22;53450;42.584;23.366;2023-08-12T00:08:42;14.76;75.71
66594;DHT22;53450;42.584;23.366;2023-08-12T00:11:07;14.76;75.65
66594;DHT22;53450;42.584;23.366;2023-08-12T00:13:33;14.67;75.50
66594;DHT22;53450;42.584;23.366;2023-08-12T00:15:59;14.77;75.52
66594;DHT22;53450;42.584;23.366;2023-08-12T00:18:24;14.70;75.08
66594;DHT22;53450;42.584;23.366;2023-08-12T00:20:50;14.39;76.01
66594;DHT22;53450;42.584;23.366;2023-08-12T00:23:16;14.20;77.27
66594;DHT22;53450;42.584;23.366;2023-08-12T00:25:42;14.22;77.18
66594;DHT22;53450;42.584;23.366;2023-08-12T00:28:07;14.46;76.52
66594;DHT22;53450;42.584;23.366;2023-08-12T00:30:33;14.57;76.26
66594;DHT22;53450;42.584;23.366;2023-08-12T00:32:59;14.53;75.93
66594;DHT22;53450;42.584;23.366;2023-08-12T00:35:24;14.50;76.14
66594;DHT22;53450;42.584;23.366;2023-08-12T00:37:50;14.56;75.93
66594;DHT22;53450;42.584;23.366;2023-08-12T00:40:15;14.53;75.90
66594;DHT22;53450;42.584;23.366;2023-08-12T00:42:41;14.37;76.60
66594;DHT22;53450;42.584;23.366;2023-08-12T00:45:11;14.26;76.55
66594;DHT22;53450;42.584;23.366;2023-08-12T00:47:38;14.12;76.72
66594;DHT22;53450;42.584;23.366;2023-08-12T00:50:06;14.08;77.35
66594;DHT22;53450;42.584;23.366;2023-08-12T00:52:33;14.09;77.45
66594;DHT22;53450;42.584;23.366;2023-08-12T00:55:00;14.19;77.35
66594;DHT22;53450;42.584;23.366;2023-08-12T00:57:25;14.19;77.10
66594;DHT22;53450;42.584;23.366;2023-08-12T00:59:51;14.27;77.07
66594;DHT22;53450;42.584;23.366;2023-08-12T01:02:17;14.39;76.91
66594;DHT22;53450;42.584;23.366;2023-08-12T01:04:42;14.33;76.88
66594;DHT22;53450;42.584;23.366;2023-08-12T01:07:08;14.29;76.91
66594;DHT22;53450;42.584;23.366;2023-08-12T01:09:34;14.29;76.96
66594;DHT22;53450;42.584;23.366;2023-08-12T01:12:05;14.25;77.08
66594;DHT22;53450;42.584;23.366;2023-08-12T01:17:14;14.23;76.71
66594;DHT22;53450;42.584;23.366;2023-08-12T01:19:42;13.88;77.04
66594;DHT22;53450;42.584;23.366;2023-08-12T01:22:10;13.74;77.76
66594;DHT22;53450;42.584;23.366;2023-08-12T01:24:46;13.88;77.52
66594;DHT22;53450;42.584;23.366;2023-08-12T01:27:13;13.98;77.42
66594;DHT22;53450;42.584;23.366;2023-08-12T01:29:45;13.79;77.43
66594;DHT22;53450;42.584;23.366;2023-08-12T01:34:43;13.27;79.97
66594;DHT22;53450;42.584;23.366;2023-08-12T01:37:19;13.48;79.41
66594;DHT22;53450;42.584;23.366;2023-08-12T01:39:48;13.67;79.00
66594;DHT22;53450;42.584;23.366;2023-08-12T01:42:16;13.67;78.63
66594;DHT22;53450;42.584;23.366;2023-08-12T01:44:42;13.61;78.21
66594;DHT22;53450;42.584;23.366;2023-08-12T01:47:09;13.55;78.61
66594;DHT22;53450;42.584;23.366;2023-08-12T01:49:37;13.62;78.44
66594;DHT22;53450;42.584;23.366;2023-08-12T01:52:03;13.67;78.41
66594;DHT22;53450;42.584;23.366;2023-08-12T01:54:28;13.65;78.20
66594;DHT22;53450;42.584;23.366;2023-08-12T01:57:02;13.61;78.71
66594;DHT22;53450;42.584;23.366;2023-08-12T01:59:32;13.51;78.91
66594;DHT22;53450;42.584;23.366;2023-08-12T02:01:58;13.47;79.04
66594;DHT22;53450;42.584;23.366;2023-08-12T02:04:27;13.46;79.04
66594;DHT22;53450;42.584;23.366;2023-08-12T02:06:54;13.54;78.86
66594;DHT22;53450;42.584;23.366;2023-08-12T02:09:45;13.53;78.77
66594;DHT22;53450;42.584;23.366;2023-08-12T02:12:36;13.50;78.83
66594;DHT22;53450;42.584;23.366;2023-08-12T02:15:04;13.58;78.85
66594;DHT22;53450;42.584;23.366;2023-08-12T02:17:34;13.62;78.47
66594;DHT22;53450;42.584;23.366;2023-08-12T02:20:03;13.57;78.47
66594;DHT22;53450;42.584;23.366;2023-08-12T02:22:30;13.48;78.84
66594;DHT22;53450;42.584;23.366;2023-08-12T02:24:56;13.61;78.64
66594;DHT22;53450;42.584;23.366;2023-08-12T02:27:22;13.61;78.47
66594;DHT22;53450;42.584;23.366;2023-08-12T02:29:48;13.58;78.63
66594;DHT22;53450;42.584;23.366;2023-08-12T02:32:13;13.51;78.64
66594;DHT22;53450;42.584;23.366;2023-08-12T02:34:45;13.30;79.22
66594;DHT22;53450;42.584;23.366;2023-08-12T02:37:10;13.34;79.46
66594;DHT22;53450;42.584;23.366;2023-08-12T02:39:38;13.34;79.53
66594;DHT22;53450;42.584;23.366;2023-08-12T02:42:04;13.31;79.39
66594;DHT22;53450;42.584;23.366;2023-08-12T02:44:30;13.19;79.65
66594;DHT22;53450;42.584;23.366;2023-08-12T02:46:56;13.03;79.82
66594;DHT22;53450;42.584;23.366;2023-08-12T02:49:21;13.07;80.00
66594;DHT22;53450;42.584;23.366;2023-08-12T02:51:47;13.13;79.91
66594;DHT22;53450;42.584;23.366;2023-08-12T02:54:14;13.19;79.43
66594;DHT22;53450;42.584;23.366;2023-08-12T02:56:43;13.23;79.28
66594;DHT22;53450;42.584;23.366;2023-08-12T02:59:09;13.16;79.46
66594;DHT22;53450;42.584;23.366;2023-08-12T03:01:34;13.14;79.48
66594;DHT22;53450;42.584;23.366;2023-08-12T03:04:00;13.13;79.71
66594;DHT22;53450;42.584;23.366;2023-08-12T03:06:26;13.11;79.96
66594;DHT22;53450;42.584;23.366;2023-08-12T03:08:54;13.09;79.96
66594;DHT22;53450;42.584;23.366;2023-08-12T03:11:20;13.04;80.25
66594;DHT22;53450;42.584;23.366;2023-08-12T03:13:46;12.96;80.72
66594;DHT22;53450;42.584;23.366;2023-08-12T03:16:13;12.93;80.81
66594;DHT22;53450;42.584;23.366;2023-08-12T03:18:44;12.86;81.03
66594;DHT22;53450;42.584;23.366;2023-08-12T03:21:10;12.85;81.15
66594;DHT22;53450;42.584;23.366;2023-08-12T03:23:37;12.78;81.33
66594;DHT22;53450;42.584;23.366;2023-08-12T03:26:04;12.52;81.90
66594;DHT22;53450;42.584;23.366;2023-08-12T03:28:31;12.34;82.50
66594;DHT22;53450;42.584;23.366;2023-08-12T03:30:57;12.51;82.47
66594;DHT22;53450;42.584;23.366;2023-08-12T03:33:24;12.65;81.89
66594;DHT22;53450;42.584;23.366;2023-08-12T03:35:50;12.75;81.39
66594;DHT22;53450;42.584;23.366;2023-08-12T03:38:17;12.86;80.88
66594;DHT22;53450;42.584;23.366;2023-08-12T03:40:44;12.86;80.67
66594;DHT22;53450;42.584;23.366;2023-08-12T03:43:12;12.85;80.63
66594;DHT22;53450;42.584;23.366;2023-08-12T03:45:45;12.90;80.73
66594;DHT22;53450;42.584;23.366;2023-08-12T03:48:36;12.85;81.00
66594;DHT22;53450;42.584;23.366;2023-08-12T03:51:02;12.90;81.17
66594;DHT22;53450;42.584;23.366;2023-08-12T03:53:28;13.13;80.90
66594;DHT22;53450;42.584;23.366;2023-08-12T03:55:55;13.20;80.46
66594;DHT22;53450;42.584;23.366;2023-08-12T03:58:20;13.40;79.97
66594;DHT22;53450;42.584;23.366;2023-08-12T04:00:46;14.33;77.93
66594;DHT22;53450;42.584;23.366;2023-08-12T04:03:14;14.99;75.01
66594;DHT22;53450;42.584;23.366;2023-08-12T04:05:49;16.01;72.54
66594;DHT22;53450;42.584;23.366;2023-08-12T04:08:24;16.94;69.23
66594;DHT22;53450;42.584;23.366;2023-08-12T04:10:51;17.50;66.61
66594;DHT22;53450;42.584;23.366;2023-08-12T04:13:17;18.08;64.23
66594;DHT22;53450;42.584;23.366;2023-08-12T04:15:47;18.08;63.72
66594;DHT22;53450;42.584;23.366;2023-08-12T04:18:13;17.98;64.07
66594;DHT22;53450;42.584;23.366;2023-08-12T04:20:39;17.57;64.95
66594;DHT22;53450;42.584;23.366;2023-08-12T04:23:05;16.82;67.65
66594;DHT22;53450;42.584;23.366;2023-08-12T04:25:30;16.29;69.32
66594;DHT22;53450;42.584;23.366;2023-08-12T04:27:56;15.98;70.45
66594;DHT22;53450;42.584;23.366;2023-08-12T04:30:23;15.67;71.41
66594;DHT22;53450;42.584;23.366;2023-08-12T04:32:49;15.56;72.45
66594;DHT22;53450;42.584;23.366;2023-08-12T04:35:16;15.46;72.77
66594;DHT22;53450;42.584;23.366;2023-08-12T04:37:42;15.21;74.47
66594;DHT22;53450;42.584;23.366;2023-08-12T04:40:08;15.16;74.76
66594;DHT22;53450;42.584;23.366;2023-08-12T04:42:34;15.29;74.25
66594;DHT22;53450;42.584;23.366;2023-08-12T04:45:00;15.28;74.36
66594;DHT22;53450;42.584;23.366;2023-08-12T04:47:30;15.43;73.79
66594;DHT22;53450;42.584;23.366;2023-08-12T04:49:56;15.55;73.80
66594;DHT22;53450;42.584;23.366;2023-08-12T04:52:21;15.67;73.82
66594;DHT22;53450;42.584;23.366;2023-08-12T04:54:48;15.93;73.13
66594;DHT22;53450;42.584;23.366;2023-08-12T04:57:15;15.91;72.28
66594;DHT22;53450;42.584;23.366;2023-08-12T04:59:40;15.91;72.08
66594;DHT22;53450;42.584;23.366;2023-08-12T05:02:06;15.87;71.31
66594;DHT22;53450;42.584;23.366;2023-08-12T05:04:33;15.98;71.87
66594;DHT22;53450;42.584;23.366;2023-08-12T05:07:24;15.98;72.86
66594;DHT22;53450;42.584;23.366;2023-08-12T05:10:16;16.04;71.34
66594;DHT22;53450;42.584;23.366;2023-08-12T05:12:45;16.17;72.26
66594;DHT22;53450;42.584;23.366;2023-08-12T05:15:14;16.38;73.85
66594;DHT22;53450;42.584;23.366;2023-08-12T05:17:41;16.47;72.82
66594;DHT22;53450;42.584;23.366;2023-08-12T05:20:08;16.52;70.35
66594;DHT22;53450;42.584;23.366;2023-08-12T05:22:36;16.73;70.00
66594;DHT22;53450;42.584;23.366;2023-08-12T05:25:02;16.84;69.54
66594;DHT22;53450;42.584;23.366;2023-08-12T05:27:27;16.87;69.03
66594;DHT22;53450;42.584;23.366;2023-08-12T05:29:53;16.82;69.63
66594;DHT22;53450;42.584;23.366;2023-08-12T05:32:19;16.92;68.71
66594;DHT22;53450;42.584;23.366;2023-08-12T05:34:44;17.19;68.12
66594;DHT22;53450;42.584;23.366;2023-08-12T05:37:10;17.34;67.65
66594;DHT22;53450;42.584;23.366;2023-08-12T05:39:35;17.27;66.93
66594;DHT22;53450;42.584;23.366;2023-08-12T05:42:01;17.31;65.84
66594;DHT22;53450;42.584;23.366;2023-08-12T05:44:27;17.21;66.15
66594;DHT22;53450;42.584;23.366;2023-08-12T05:46:52;17.28;65.82
66594;DHT22;53450;42.584;23.366;2023-08-12T05:49:18;17.23;65.92
66594;DHT22;53450;42.584;23.366;2023-08-12T05:51:43;17.30;65.72
66594;DHT22;53450;42.584;23.366;2023-08-12T05:54:09;17.45;65.50
66594;DHT22;53450;42.584;23.366;2023-08-12T05:56:35;17.58;65.40
66594;DHT22;53450;42.584;23.366;2023-08-12T05:59:03;17.55;65.05
66594;DHT22;53450;42.584;23.366;2023-08-12T06:01:28;17.60;65.59
66594;DHT22;53450;42.584;23.366;2023-08-12T06:03:54;17.67;65.11
66594;DHT22;53450;42.584;23.366;2023-08-12T06:06:20;17.72;64.96
66594;DHT22;53450;42.584;23.366;2023-08-12T06:08:51;17.71;64.41
66594;DHT22;53450;42.584;23.366;2023-08-12T06:11:20;17.88;64.46
66594;DHT22;53450;42.584;23.366;2023-08-12T06:13:45;17.91;64.74
66594;DHT22;53450;42.584;23.366;2023-08-12T06:16:11;17.82;64.12
66594;DHT22;53450;42.584;23.366;2023-08-12T06:18:36;17.95;64.23
66594;DHT22;53450;42.584;23.366;2023-08-12T06:21:02;17.79;65.86
66594;DHT22;53450;42.584;23.366;2023-08-12T06:23:28;17.92;65.44
66594;DHT22;53450;42.584;23.366;2023-08-12T06:25:55;17.85;65.23
66594;DHT22;53450;42.584;23.366;2023-08-12T06:28:20;17.92;64.77
66594;DHT22;53450;42.584;23.366;2023-08-12T06:30:46;17.95;65.78
66594;DHT22;53450;42.584;23.366;2023-08-12T06:33:14;18.13;65.13
66594;DHT22;53450;42.584;23.366;2023-08-12T06:35:42;18.33;64.32
66594;DHT22;53450;42.584;23.366;2023-08-12T06:38:08;18.43;63.88
66594;DHT22;53450;42.584;23.366;2023-08-12T06:40:39;18.58;63.85
66594;DHT22;53450;42.584;23.366;2023-08-12T06:43:07;18.61;62.49
66594;DHT22;53450;42.584;23.366;2023-08-12T06:45:35;18.68;62.44
66594;DHT22;53450;42.584;23.366;2023-08-12T06:48:25;18.74;63.30
66594;DHT22;53450;42.584;23.366;2023-08-12T06:50:54;18.78;62.89
66594;DHT22;53450;42.584;23.366;2023-08-12T06:53:21;18.84;62.57
66594;DHT22;53450;42.584;23.366;2023-08-12T06:55:46;18.87;62.86
66594;DHT22;53450;42.584;23.366;2023-08-12T06:58:13;19.05;63.07
66594;DHT22;53450;42.584;23.366;2023-08-12T07:00:40;19.25;62.48
66594;DHT22;53450;42.584;23.366;2023-08-12T07:03:06;19.42;62.82
66594;DHT22;53450;42.584;23.366;2023-08-12T07:05:31;19.49;60.67
66594;DHT22;53450;42.584;23.366;2023-08-12T07:07:57;19.53;60.15
66594;DHT22;53450;42.584;23.366;2023-08-12T07:10:22;19.50;60.33
66594;DHT22;53450;42.584;23.366;2023-08-12T07:12:48;19.53;61.48
66594;DHT22;53450;42.584;23.366;2023-08-12T07:15:16;19.56;60.91
66594;DHT22;53450;42.584;23.366;2023-08-12T07:17:42;19.70;60.98
66594;DHT22;53450;42.584;23.366;2023-08-12T07:20:08;19.76;60.52
66594;DHT22;53450;42.584;23.366;2023-08-12T07:22:34;19.76;61.17
66594;DHT22;53450;42.584;23.366;2023-08-12T07:25:00;19.90;60.42
66594;DHT22;53450;42.584;23.366;2023-08-12T07:27:27;19.90;59.69
66594;DHT22;53450;42.584;23.366;2023-08-12T07:29:52;19.70;59.35
66594;DHT22;53450;42.584;23.366;2023-08-12T07:32:21;19.86;60.10
66594;DHT22;53450;42.584;23.366;2023-08-12T07:34:46;20.01;59.31
66594;DHT22;53450;42.584;23.366;2023-08-12T07:37:12;19.98;58.48
66594;DHT22;53450;42.584;23.366;2023-08-12T07:39:38;20.17;59.06
66594;DHT22;53450;42.584;23.366;2023-08-12T07:42:03;20.41;57.07
66594;DHT22;53450;42.584;23.366;2023-08-12T07:44:29;20.31;55.58
66594;DHT22;53450;42.584;23.366;2023-08-12T07:46:55;20.15;56.20
66594;DHT22;53450;42.584;23.366;2023-08-12T07:49:21;20.15;56.87
66594;DHT22;53450;42.584;23.366;2023-08-12T07:51:49;20.31;56.61
66594;DHT22;53450;42.584;23.366;2023-08-12T07:54:15;20.36;55.52
66594;DHT22;53450;42.584;23.366;2023-08-12T07:56:41;20.57;56.70
66594;DHT22;53450;42.584;23.366;2023-08-12T07:59:09;20.69;55.82
66594;DHT22;53450;42.584;23.366;2023-08-12T08:01:34;20.72;54.80
66594;DHT22;53450;42.584;23.366;2023-08-12T08:04:00;20.72;53.57
66594;DHT22;53450;42.584;23.366;2023-08-12T08:06:25;20.72;54.02
66594;DHT22;53450;42.584;23.366;2023-08-12T08:08:54;20.62;54.60
66594;DHT22;53450;42.584;23.366;2023-08-12T08:11:21;20.57;54.16
66594;DHT22;53450;42.584;23.366;2023-08-12T08:13:47;20.53;54.65
66594;DHT22;53450;42.584;23.366;2023-08-12T08:16:12;20.62;53.52
66594;DHT22;53450;42.584;23.366;2023-08-12T08:18:38;20.66;52.55
66594;DHT22;53450;42.584;23.366;2023-08-12T08:21:03;20.73;52.54
66594;DHT22;53450;42.584;23.366;2023-08-12T08:23:32;20.63;51.60
66594;DHT22;53450;42.584;23.366;2023-08-12T08:25:57;20.76;53.59
66594;DHT22;53450;42.584;23.366;2023-08-12T08:28:23;20.79;52.60
66594;DHT22;53450;42.584;23.366;2023-08-12T08:30:49;20.86;52.83
66594;DHT22;53450;42.584;23.366;2023-08-12T08:33:14;20.99;51.55
66594;DHT22;53450;42.584;23.366;2023-08-12T08:35:40;21.11;52.77
66594;DHT22;53450;42.584;23.366;2023-08-12T08:38:05;21.00;51.75
66594;DHT22;53450;42.584;23.366;2023-08-12T08:40:31;21.03;51.89
66594;DHT22;53450;42.584;23.366;2023-08-12T08:43:01;21.03;50.63
66594;DHT22;53450;42.584;23.366;2023-08-12T08:45:32;20.86;51.86
66594;DHT22;53450;42.584;23.366;2023-08-12T08:47:59;21.03;52.62
66594;DHT22;53450;42.584;23.366;2023-08-12T08:50:26;21.04;52.60
66594;DHT22;53450;42.584;23.366;2023-08-12T08:52:56;21.27;53.14
66594;DHT22;53450;42.584;23.366;2023-08-12T08:55:22;21.40;50.54
66594;DHT22;53450;42.584;23.366;2023-08-12T08:57:48;21.48;51.60
66594;DHT22;53450;42.584;23.366;2023-08-12T09:00:18;21.62;50.55
66594;DHT22;53450;42.584;23.366;2023-08-12T09:02:46;21.59;50.18
66594;DHT22;53450;42.584;23.366;2023-08-12T09:05:12;21.40;50.03
66594;DHT22;53450;42.584;23.366;2023-08-12T09:07:40;21.42;50.46
66594;DHT22;53450;42.584;23.366;2023-08-12T09:10:07;21.45;50.81
66594;DHT22;53450;42.584;23.366;2023-08-12T09:12:34;21.47;49.06
66594;DHT22;53450;42.584;23.366;2023-08-12T09:14:59;21.62;49.67
66594;DHT22;53450;42.584;23.366;2023-08-12T09:17:25;21.71;50.71
66594;DHT22;53450;42.584;23.366;2023-08-12T09:19:51;21.86;51.37
66594;DHT22;53450;42.584;23.366;2023-08-12T09:22:17;21.88;49.00
66594;DHT22;53450;42.584;23.366;2023-08-12T09:24:43;21.96;48.55
66594;DHT22;53450;42.584;23.366;2023-08-12T09:27:09;22.16;49.22
66594;DHT22;53450;42.584;23.366;2023-08-12T09:29:35;22.37;49.97
66594;DHT22;53450;42.584;23.366;2023-08-12T09:32:13;22.29;49.04
66594;DHT22;53450;42.584;23.366;2023-08-12T09:35:01;22.35;47.81
66594;DHT22;53450;42.584;23.366;2023-08-12T09:37:28;22.41;49.06
66594;DHT22;53450;42.584;23.366;2023-08-12T09:39:54;22.44;47.50
66594;DHT22;53450;42.584;23.366;2023-08-12T09:42:22;22.41;48.26
66594;DHT22;53450;42.584;23.366;2023-08-12T09:44:47;22.39;45.94
66594;DHT22;53450;42.584;23.366;2023-08-12T09:47:13;22.36;46.69
66594;DHT22;53450;42.584;23.366;2023-08-12T09:49:40;22.41;47.23
66594;DHT22;53450;42.584;23.366;2023-08-12T09:52:06;22.37;47.06
66594;DHT22;53450;42.584;23.366;2023-08-12T09:54:33;22.36;47.20
66594;DHT22;53450;42.584;23.366;2023-08-12T09:57:01;22.44;46.70
66594;DHT22;53450;42.584;23.366;2023-08-12T09:59:32;22.71;46.08
66594;DHT22;53450;42.584;23.366;2023-08-12T10:02:03;22.71;46.89
66594;DHT22;53450;42.584;23.366;2023-08-12T10:04:37;22.86;45.87
66594;DHT22;53450;42.584;23.366;2023-08-12T10:07:05;22.83;45.42
66594;DHT22;53450;42.584;23.366;2023-08-12T10:09:32;22.90;45.01
66594;DHT22;53450;42.584;23.366;2023-08-12T10:11:59;22.94;44.74
66594;DHT22;53450;42.584;23.366;2023-08-12T10:14:25;23.05;45.45
66594;DHT22;53450;42.584;23.366;2023-08-12T10:16:52;23.08;45.10
66594;DHT22;53450;42.584;23.366;2023-08-12T10:19:20;23.01;45.69
66594;DHT22;53450;42.584;23.366;2023-08-12T10:21:48;23.16;45.17
66594;DHT22;53450;42.584;23.366;2023-08-12T10:24:16;23.04;44.41
66594;DHT22;53450;42.584;23.366;2023-08-12T10:26:42;23.29;45.71
66594;DHT22;53450;42.584;23.366;2023-08-12T10:29:08;23.35;44.26
66594;DHT22;53450;42.584;23.366;2023-08-12T10:31:38;23.33;43.26
66594;DHT22;53450;42.584;23.366;2023-08-12T10:34:03;23.46;43.25
66594;DHT22;53450;42.584;23.366;2023-08-12T10:37:01;23.66;42.96
66594;DHT22;53450;42.584;23.366;2023-08-12T10:39:28;23.71;42.42
66594;DHT22;53450;42.584;23.366;2023-08-12T10:41:59;23.88;40.62
66594;DHT22;53450;42.584;23.366;2023-08-12T10:44:51;23.83;44.32
66594;DHT22;53450;42.584;23.366;2023-08-12T10:47:17;23.84;43.33
66594;DHT22;53450;42.584;23.366;2023-08-12T10:49:44;24.00;43.96
66594;DHT22;53450;42.584;23.366;2023-08-12T10:52:29;24.07;43.89
66594;DHT22;53450;42.584;23.366;2023-08-12T10:55:30;24.18;42.68
66594;DHT22;53450;42.584;23.366;2023-08-12T10:58:08;24.31;42.90
66594;DHT22;53450;42.584;23.366;2023-08-12T11:01:03;24.29;40.51
66594;DHT22;53450;42.584;23.366;2023-08-12T11:03:34;24.39;39.48
66594;DHT22;53450;42.584;23.366;2023-08-12T11:06:02;24.48;39.67
66594;DHT22;53450;42.584;23.366;2023-08-12T11:08:28;24.63;40.28
66594;DHT22;53450;42.584;23.366;2023-08-12T11:10:55;24.63;41.31
66594;DHT22;53450;42.584;23.366;2023-08-12T11:13:27;24.56;40.49
66594;DHT22;53450;42.584;23.366;2023-08-12T11:16:05;24.44;39.66
66594;DHT22;53450;42.584;23.366;2023-08-12T11:18:31;24.13;39.11
66594;DHT22;53450;42.584;23.366;2023-08-12T11:20:57;24.42;38.78
66594;DHT22;53450;42.584;23.366;2023-08-12T11:23:23;24.65;37.96
66594;DHT22;53450;42.584;23.366;2023-08-12T11:25:49;24.89;39.10
66594;DHT22;53450;42.584;23.366;2023-08-12T11:28:18;25.16;37.92
66594;DHT22;53450;42.584;23.366;2023-08-12T11:30:47;25.22;37.40
66594;DHT22;53450;42.584;23.366;2023-08-12T11:33:16;25.06;37.15
66594;DHT22;53450;42.584;23.366;2023-08-12T11:35:44;25.33;37.37
66594;DHT22;53450;42.584;23.366;2023-08-12T11:38:09;25.20;36.75
66594;DHT22;53450;42.584;23.366;2023-08-12T11:40:35;25.06;37.74
66594;DHT22;53450;42.584;23.366;2023-08-12T11:43:03;25.03;37.02
66594;DHT22;53450;42.584;23.366;2023-08-12T11:45:29;24.89;37.22
66594;DHT22;53450;42.584;23.366;2023-08-12T11:47:54;24.62;36.32
66594;DHT22;53450;42.584;23.366;2023-08-12T11:50:26;24.80;37.30
66594;DHT22;53450;42.584;23.366;2023-08-12T11:52:53;24.97;37.17
66594;DHT22;53450;42.584;23.366;2023-08-12T11:55:23;25.06;34.51
66594;DHT22;53450;42.584;23.366;2023-08-12T11:57:50;25.19;33.68
66594;DHT22;53450;42.584;23.366;2023-08-12T12:00:16;25.41;35.82
66594;DHT22;53450;42.584;23.366;2023-08-12T12:02:55;25.71;36.07
66594;DHT22;53450;42.584;23.366;2023-08-12T12:05:22;25.93;36.78
66594;DHT22;53450;42.584;23.366;2023-08-12T12:07:49;25.93;36.47
66594;DHT22;53450;42.584;23.366;2023-08-12T12:10:27;25.86;36.27
66594;DHT22;53450;42.584;23.366;2023-08-12T12:12:55;25.72;35.18
66594;DHT22;53450;42.584;23.366;2023-08-12T12:15:21;25.31;35.83
66594;DHT22;53450;42.584;23.366;2023-08-12T12:17:50;24.94;36.75
66594;DHT22;53450;42.584;23.366;2023-08-12T12:20:19;25.10;35.50
66594;DHT22;53450;42.584;23.366;2023-08-12T12:22:48;25.28;34.94
66594;DHT22;53450;42.584;23.366;2023-08-12T12:25:15;25.37;32.80
66594;DHT22;53450;42.584;23.366;2023-08-12T12:27:43;25.45;35.09
66594;DHT22;53450;42.584;23.366;2023-08-12T12:30:10;25.67;33.26
66594;DHT22;53450;42.584;23.366;2023-08-12T12:32:36;25.60;34.92
66594;DHT22;53450;42.584;23.366;2023-08-12T12:35:03;25.62;34.32
66594;DHT22;53450;42.584;23.366;2023-08-12T12:37:29;25.22;34.64
66594;DHT22;53450;42.584;23.366;2023-08-12T12:39:55;24.89;35.13
66594;DHT22;53450;42.584;23.366;2023-08-12T12:42:20;24.58;34.99
66594;DHT22;53450;42.584;23.366;2023-08-12T12:44:46;24.66;36.54
66594;DHT22;53450;42.584;23.366;2023-08-12T12:47:14;24.65;36.31
66594;DHT22;53450;42.584;23.366;2023-08-12T12:49:42;24.58;36.11
66594;DHT22;53450;42.584;23.366;2023-08-12T12:52:08;25.00;35.12
66594;DHT22;53450;42.584;23.366;2023-08-12T12:54:36;25.33;32.11
66594;DHT22;53450;42.584;23.366;2023-08-12T12:57:02;25.60;34.55
66594;DHT22;53450;42.584;23.366;2023-08-12T12:59:29;25.88;34.17
66594;DHT22;53450;42.584;23.366;2023-08-12T13:01:55;26.28;33.12
66594;DHT22;53450;42.584;23.366;2023-08-12T13:04:21;26.32;32.34
66594;DHT22;53450;42.584;23.366;2023-08-12T13:06:46;26.49;31.53
66594;DHT22;53450;42.584;23.366;2023-08-12T13:09:12;26.28;33.12
66594;DHT22;53450;42.584;23.366;2023-08-12T13:11:38;26.50;32.31
66594;DHT22;53450;42.584;23.366;2023-08-12T13:14:04;26.33;32.63
66594;DHT22;53450;42.584;23.366;2023-08-12T13:16:30;26.47;35.35
66594;DHT22;53450;42.584;23.366;2023-08-12T13:18:56;26.41;36.12
66594;DHT22;53450;42.584;23.366;2023-08-12T13:21:24;26.40;35.41
66594;DHT22;53450;42.584;23.366;2023-08-12T13:23:55;26.61;36.02
66594;DHT22;53450;42.584;23.366;2023-08-12T13:26:21;26.54;36.19
66594;DHT22;53450;42.584;23.366;2023-08-12T13:28:47;26.23;36.93
66594;DHT22;53450;42.584;23.366;2023-08-12T13:31:13;25.77;38.01
66594;DHT22;53450;42.584;23.366;2023-08-12T13:33:39;25.34;39.89
66594;DHT22;53450;42.584;23.366;2023-08-12T13:36:04;25.09;39.84
66594;DHT22;53450;42.584;23.366;2023-08-12T13:38:32;25.03;40.42
66594;DHT22;53450;42.584;23.366;2023-08-12T13:40:58;24.96;40.99
66594;DHT22;53450;42.584;23.366;2023-08-12T13:43:23;24.83;41.31
66594;DHT22;53450;42.584;23.366;2023-08-12T13:45:49;24.73;42.30
66594;DHT22;53450;42.584;23.366;2023-08-12T13:48:14;24.54;43.05
66594;DHT22;53450;42.584;23.366;2023-08-12T13:50:40;24.48;41.41
66594;DHT22;53450;42.584;23.366;2023-08-12T13:53:06;24.59;41.21
66594;DHT22;53450;42.584;23.366;2023-08-12T13:55:32;24.51;41.29
66594;DHT22;53450;42.584;23.366;2023-08-12T13:57:57;24.52;42.19
66594;DHT22;53450;42.584;23.366;2023-08-12T14:00:23;24.55;41.49
66594;DHT22;53450;42.584;23.366;2023-08-12T14:02:50;24.42;41.79
66594;DHT22;53450;42.584;23.366;2023-08-12T14:05:15;24.51;41.54
66594;DHT22;53450;42.584;23.366;2023-08-12T14:07:41;24.66;41.77
66594;DHT22;53450;42.584;23.366;2023-08-12T14:10:07;24.58;41.44
66594;DHT22;53450;42.584;23.366;2023-08-12T14:12:34;24.62;41.76
66594;DHT22;53450;42.584;23.366;2023-08-12T14:15:00;24.68;42.13
66594;DHT22;53450;42.584;23.366;2023-08-12T14:17:25;24.54;41.84
66594;DHT22;53450;42.584;23.366;2023-08-12T14:19:51;24.51;41.85
66594;DHT22;53450;42.584;23.366;2023-08-12T14:22:19;24.38;42.82
66594;DHT22;53450;42.584;23.366;2023-08-12T14:24:44;24.36;42.57
66594;DHT22;53450;42.584;23.366;2023-08-12T14:27:11;24.32;43.65
66594;DHT22;53450;42.584;23.366;2023-08-12T14:29:36;24.25;42.85
66594;DHT22;53450;42.584;23.366;2023-08-12T14:32:02;24.21;41.80
66594;DHT22;53450;42.584;23.366;2023-08-12T14:34:53;24.08;42.07
66594;DHT22;53450;42.584;23.366;2023-08-12T14:37:44;24.25;42.27
66594;DHT22;53450;42.584;23.366;2023-08-12T14:40:10;24.32;42.18
66594;DHT22;53450;42.584;23.366;2023-08-12T14:42:36;24.26;42.66
66594;DHT22;53450;42.584;23.366;2023-08-12T14:45:02;24.38;41.70
66594;DHT22;53450;42.584;23.366;2023-08-12T14:47:28;24.42;41.51
66594;DHT22;53450;42.584;23.366;2023-08-12T14:50:00;24.59;42.89
66594;DHT22;53450;42.584;23.366;2023-08-12T14:52:26;24.39;42.90
66594;DHT22;53450;42.584;23.366;2023-08-12T14:54:52;24.38;44.34
66594;DHT22;53450;42.584;23.366;2023-08-12T14:57:20;24.44;43.96
66594;DHT22;53450;42.584;23.366;2023-08-12T15:00:12;24.34;44.48
66594;DHT22;53450;42.584;23.366;2023-08-12T15:02:40;24.25;44.06
66594;DHT22;53450;42.584;23.366;2023-08-12T15:05:08;24.35;44.80
66594;DHT22;53450;42.584;23.366;2023-08-12T15:07:34;24.39;44.49
66594;DHT22;53450;42.584;23.366;2023-08-12T15:09:59;24.31;45.26
66594;DHT22;53450;42.584;23.366;2023-08-12T15:12:50;24.24;45.76
66594;DHT22;53450;42.584;23.366;2023-08-12T15:15:45;23.86;45.73
66594;DHT22;53450;42.584;23.366;2023-08-12T15:18:37;24.05;45.29
66594;DHT22;53450;42.584;23.366;2023-08-12T15:21:02;24.22;45.35
66594;DHT22;53450;42.584;23.366;2023-08-12T15:23:28;24.17;44.76
66594;DHT22;53450;42.584;23.366;2023-08-12T15:25:54;24.07;45.02